sensor_id;sensor_type;location;lat;lon;timestamp;P1;durP1;ratioP1;P2;durP2;ratioP2
59846;SDS011;45728;48.788;2.302;2023-12-14T00:00:31;5.45;;;2.17;;
59846;SDS011;45728;48.788;2.302;2023-12-14T00:02:57;5.90;;;2.50;;
59846;SDS011;45728;48.788;2.302;2023-12-14T00:05:23;3.92;;;2.15;;
59846;SDS011;45728;48.788;2.302;2023-12-14T00:07:49;4.35;;;1.95;;
59846;SDS011;45728;48.788;2.302;2023-12-14T00:10:16;4.97;;;2.20;;
59846;SDS011;45728;48.788;2.302;2023-12-14T00:12:43;3.50;;;2.10;;
59846;SDS011;45728;48.788;2.302;2023-12-14T00:15:10;5.53;;;2.40;;
59846;SDS011;45728;48.788;2.302;2023-12-14T00:17:36;4.13;;;2.13;;
59846;SDS011;45728;48.788;2.302;2023-12-14T00:20:02;4.03;;;2.13;;
59846;SDS011;45728;48.788;2.302;2023-12-14T00:22:28;4.60;;;2.13;;
59846;SDS011;45728;48.788;2.302;2023-12-14T00:24:54;3.10;;;2.10;;
59846;SDS011;45728;48.788;2.302;2023-12-14T00:27:20;3.75;;;2.10;;
59846;SDS011;45728;48.788;2.302;2023-12-14T00:29:46;6.18;;;2.30;;
59846;SDS011;45728;48.788;2.302;2023-12-14T00:32:13;5.85;;;2.35;;
59846;SDS011;45728;48.788;2.302;2023-12-14T00:34:39;4.80;;;2.45;;
59846;SDS011;45728;48.788;2.302;2023-12-14T00:37:05;6.05;;;2.55;;
59846;SDS011;45728;48.788;2.302;2023-12-14T00:39:31;5.75;;;2.47;;
59846;SDS011;45728;48.788;2.302;2023-12-14T00:41:57;5.28;;;1.75;;
59846;SDS011;45728;48.788;2.302;2023-12-14T00:44:23;5.00;;;2.00;;
59846;SDS011;45728;48.788;2.302;2023-12-14T00:46:49;6.20;;;2.10;;
59846;SDS011;45728;48.788;2.302;2023-12-14T00:49:15;4.70;;;1.98;;
59846;SDS011;45728;48.788;2.302;2023-12-14T00:51:43;4.75;;;1.98;;
59846;SDS011;45728;48.788;2.302;2023-12-14T00:54:09;3.47;;;1.67;;
59846;SDS011;45728;48.788;2.302;2023-12-14T00:56:35;4.50;;;1.55;;
59846;SDS011;45728;48.788;2.302;2023-12-14T00:59:01;2.65;;;1.58;;
59846;SDS011;45728;48.788;2.302;2023-12-14T01:01:28;4.97;;;2.08;;
59846;SDS011;45728;48.788;2.302;2023-12-14T01:03:54;7.90;;;1.75;;
59846;SDS011;45728;48.788;2.302;2023-12-14T01:06:20;5.22;;;2.10;;
59846;SDS011;45728;48.788;2.302;2023-12-14T01:08:46;4.22;;;1.80;;
59846;SDS011;45728;48.788;2.302;2023-12-14T01:11:12;4.60;;;1.80;;
59846;SDS011;45728;48.788;2.302;2023-12-14T01:13:38;3.15;;;1.70;;
59846;SDS011;45728;48.788;2.302;2023-12-14T01:16:04;3.85;;;1.60;;
59846;SDS011;45728;48.788;2.302;2023-12-14T01:18:30;7.00;;;1.90;;
59846;SDS011;45728;48.788;2.302;2023-12-14T01:20:57;3.85;;;1.60;;
59846;SDS011;45728;48.788;2.302;2023-12-14T01:23:23;3.70;;;1.90;;
59846;SDS011;45728;48.788;2.302;2023-12-14T01:25:49;7.38;;;1.73;;
59846;SDS011;45728;48.788;2.302;2023-12-14T01:28:15;4.20;;;1.80;;
59846;SDS011;45728;48.788;2.302;2023-12-14T01:30:41;5.75;;;1.85;;
59846;SDS011;45728;48.788;2.302;2023-12-14T01:33:07;7.32;;;2.17;;
59846;SDS011;45728;48.788;2.302;2023-12-14T01:35:33;6.90;;;2.15;;
59846;SDS011;45728;48.788;2.302;2023-12-14T01:37:59;3.60;;;1.58;;
59846;SDS011;45728;48.788;2.302;2023-12-14T01:40:25;2.97;;;1.65;;
59846;SDS011;45728;48.788;2.302;2023-12-14T01:42:51;5.28;;;1.92;;
59846;SDS011;45728;48.788;2.302;2023-12-14T01:45:17;7.53;;;1.80;;
59846;SDS011;45728;48.788;2.302;2023-12-14T01:47:43;2.75;;;1.50;;
59846;SDS011;45728;48.788;2.302;2023-12-14T01:50:10;4.00;;;1.50;;
59846;SDS011;45728;48.788;2.302;2023-12-14T01:52:36;4.93;;;1.77;;
59846;SDS011;45728;48.788;2.302;2023-12-14T01:55:02;4.72;;;1.40;;
59846;SDS011;45728;48.788;2.302;2023-12-14T01:57:28;7.32;;;1.90;;
59846;SDS011;45728;48.788;2.302;2023-12-14T01:59:55;2.70;;;1.17;;
59846;SDS011;45728;48.788;2.302;2023-12-14T02:02:21;5.65;;;1.55;;
59846;SDS011;45728;48.788;2.302;2023-12-14T02:04:47;4.38;;;1.40;;
59846;SDS011;45728;48.788;2.302;2023-12-14T02:07:13;4.57;;;1.23;;
59846;SDS011;45728;48.788;2.302;2023-12-14T02:09:39;3.65;;;1.33;;
59846;SDS011;45728;48.788;2.302;2023-12-14T02:12:05;3.90;;;1.33;;
59846;SDS011;45728;48.788;2.302;2023-12-14T02:14:31;3.80;;;1.25;;
59846;SDS011;45728;48.788;2.302;2023-12-14T02:16:58;2.28;;;1.10;;
59846;SDS011;45728;48.788;2.302;2023-12-14T02:19:24;2.15;;;1.25;;
59846;SDS011;45728;48.788;2.302;2023-12-14T02:21:50;1.73;;;1.08;;
59846;SDS011;45728;48.788;2.302;2023-12-14T02:24:16;1.70;;;1.02;;
59846;SDS011;45728;48.788;2.302;2023-12-14T02:26:42;2.67;;;1.13;;
59846;SDS011;45728;48.788;2.302;2023-12-14T02:29:08;2.67;;;1.40;;
59846;SDS011;45728;48.788;2.302;2023-12-14T02:31:34;3.45;;;1.35;;
59846;SDS011;45728;48.788;2.302;2023-12-14T02:34:00;2.25;;;1.35;;
59846;SDS011;45728;48.788;2.302;2023-12-14T02:36:26;2.25;;;1.30;;
59846;SDS011;45728;48.788;2.302;2023-12-14T02:38:52;3.20;;;1.10;;
59846;SDS011;45728;48.788;2.302;2023-12-14T02:41:18;2.75;;;1.30;;
59846;SDS011;45728;48.788;2.302;2023-12-14T02:43:44;3.30;;;1.50;;
59846;SDS011;45728;48.788;2.302;2023-12-14T02:46:10;2.78;;;1.10;;
59846;SDS011;45728;48.788;2.302;2023-12-14T02:48:40;9.07;;;1.30;;
59846;SDS011;45728;48.788;2.302;2023-12-14T02:51:11;2.35;;;1.15;;
59846;SDS011;45728;48.788;2.302;2023-12-14T02:53:39;3.80;;;1.00;;
59846;SDS011;45728;48.788;2.302;2023-12-14T02:56:05;2.83;;;1.50;;
59846;SDS011;45728;48.788;2.302;2023-12-14T02:58:31;3.25;;;1.20;;
59846;SDS011;45728;48.788;2.302;2023-12-14T03:00:57;1.95;;;0.90;;
59846;SDS011;45728;48.788;2.302;2023-12-14T03:03:23;2.65;;;1.20;;
59846;SDS011;45728;48.788;2.302;2023-12-14T03:05:49;2.00;;;1.00;;
59846;SDS011;45728;48.788;2.302;2023-12-14T03:08:15;1.08;;;1.00;;
59846;SDS011;45728;48.788;2.302;2023-12-14T03:10:41;3.03;;;1.30;;
59846;SDS011;45728;48.788;2.302;2023-12-14T03:13:07;2.90;;;1.10;;
59846;SDS011;45728;48.788;2.302;2023-12-14T03:15:33;3.95;;;1.50;;
59846;SDS011;45728;48.788;2.302;2023-12-14T03:17:59;2.20;;;1.20;;
59846;SDS011;45728;48.788;2.302;2023-12-14T03:20:25;1.05;;;0.85;;
59846;SDS011;45728;48.788;2.302;2023-12-14T03:22:51;2.22;;;1.10;;
59846;SDS011;45728;48.788;2.302;2023-12-14T03:25:18;3.28;;;1.08;;
59846;SDS011;45728;48.788;2.302;2023-12-14T03:27:44;3.22;;;1.10;;
59846;SDS011;45728;48.788;2.302;2023-12-14T03:30:10;1.95;;;0.88;;
59846;SDS011;45728;48.788;2.302;2023-12-14T03:32:36;1.80;;;1.15;;
59846;SDS011;45728;48.788;2.302;2023-12-14T03:35:02;1.92;;;1.13;;
59846;SDS011;45728;48.788;2.302;2023-12-14T03:37:29;1.40;;;0.90;;
59846;SDS011;45728;48.788;2.302;2023-12-14T03:39:55;2.05;;;1.00;;
59846;SDS011;45728;48.788;2.302;2023-12-14T03:42:21;1.95;;;1.25;;
59846;SDS011;45728;48.788;2.302;2023-12-14T03:44:47;2.25;;;1.02;;
59846;SDS011;45728;48.788;2.302;2023-12-14T03:47:13;2.22;;;1.30;;
59846;SDS011;45728;48.788;2.302;2023-12-14T03:49:39;2.25;;;1.40;;
59846;SDS011;45728;48.788;2.302;2023-12-14T03:52:05;2.85;;;1.10;;
59846;SDS011;45728;48.788;2.302;2023-12-14T03:54:31;1.80;;;1.02;;
59846;SDS011;45728;48.788;2.302;2023-12-14T03:56:57;4.28;;;1.35;;
59846;SDS011;45728;48.788;2.302;2023-12-14T03:59:23;2.13;;;1.25;;
59846;SDS011;45728;48.788;2.302;2023-12-14T04:01:49;3.17;;;1.58;;
59846;SDS011;45728;48.788;2.302;2023-12-14T04:04:15;3.85;;;1.60;;
59846;SDS011;45728;48.788;2.302;2023-12-14T04:06:41;4.90;;;2.10;;
59846;SDS011;45728;48.788;2.302;2023-12-14T04:09:07;3.85;;;1.80;;
59846;SDS011;45728;48.788;2.302;2023-12-14T04:11:34;5.25;;;2.15;;
59846;SDS011;45728;48.788;2.302;2023-12-14T04:14:00;3.13;;;2.10;;
59846;SDS011;45728;48.788;2.302;2023-12-14T04:16:26;3.67;;;2.33;;
59846;SDS011;45728;48.788;2.302;2023-12-14T04:18:52;6.07;;;2.85;;
59846;SDS011;45728;48.788;2.302;2023-12-14T04:21:18;6.45;;;3.10;;
59846;SDS011;45728;48.788;2.302;2023-12-14T04:23:44;4.63;;;3.10;;
59846;SDS011;45728;48.788;2.302;2023-12-14T04:26:11;5.32;;;3.03;;
59846;SDS011;45728;48.788;2.302;2023-12-14T04:28:37;3.67;;;2.67;;
59846;SDS011;45728;48.788;2.302;2023-12-14T04:31:03;7.88;;;3.65;;
59846;SDS011;45728;48.788;2.302;2023-12-14T04:33:29;6.68;;;3.30;;
59846;SDS011;45728;48.788;2.302;2023-12-14T04:35:55;8.95;;;3.75;;
59846;SDS011;45728;48.788;2.302;2023-12-14T04:38:21;11.10;;;4.60;;
59846;SDS011;45728;48.788;2.302;2023-12-14T04:40:47;8.35;;;3.92;;
59846;SDS011;45728;48.788;2.302;2023-12-14T04:43:13;11.73;;;4.47;;
59846;SDS011;45728;48.788;2.302;2023-12-14T04:45:40;9.38;;;4.15;;
59846;SDS011;45728;48.788;2.302;2023-12-14T04:48:06;9.95;;;4.28;;
59846;SDS011;45728;48.788;2.302;2023-12-14T04:50:32;12.98;;;5.15;;
59846;SDS011;45728;48.788;2.302;2023-12-14T04:52:58;9.30;;;4.22;;
59846;SDS011;45728;48.788;2.302;2023-12-14T04:55:24;11.13;;;4.55;;
59846;SDS011;45728;48.788;2.302;2023-12-14T04:57:51;10.55;;;4.35;;
59846;SDS011;45728;48.788;2.302;2023-12-14T05:00:17;12.05;;;4.70;;
59846;SDS011;45728;48.788;2.302;2023-12-14T05:02:46;10.20;;;4.53;;
59846;SDS011;45728;48.788;2.302;2023-12-14T05:05:13;13.75;;;5.72;;
59846;SDS011;45728;48.788;2.302;2023-12-14T05:07:39;9.52;;;4.90;;
59846;SDS011;45728;48.788;2.302;2023-12-14T05:10:05;12.52;;;4.60;;
59846;SDS011;45728;48.788;2.302;2023-12-14T05:12:32;13.13;;;4.78;;
59846;SDS011;45728;48.788;2.302;2023-12-14T05:14:58;17.48;;;5.00;;
59846;SDS011;45728;48.788;2.302;2023-12-14T05:17:24;14.25;;;4.85;;
59846;SDS011;45728;48.788;2.302;2023-12-14T05:19:50;12.65;;;4.70;;
59846;SDS011;45728;48.788;2.302;2023-12-14T05:22:16;15.35;;;4.97;;
59846;SDS011;45728;48.788;2.302;2023-12-14T05:24:44;17.08;;;4.85;;
59846;SDS011;45728;48.788;2.302;2023-12-14T05:27:12;13.27;;;4.57;;
59846;SDS011;45728;48.788;2.302;2023-12-14T05:29:38;12.98;;;5.05;;
59846;SDS011;45728;48.788;2.302;2023-12-14T05:32:04;13.57;;;5.35;;
59846;SDS011;45728;48.788;2.302;2023-12-14T05:34:30;17.70;;;5.13;;
59846;SDS011;45728;48.788;2.302;2023-12-14T05:36:56;19.88;;;5.50;;
59846;SDS011;45728;48.788;2.302;2023-12-14T05:39:22;15.43;;;5.95;;
59846;SDS011;45728;48.788;2.302;2023-12-14T05:41:48;12.63;;;5.05;;
59846;SDS011;45728;48.788;2.302;2023-12-14T05:44:14;14.90;;;4.50;;
59846;SDS011;45728;48.788;2.302;2023-12-14T05:46:40;15.77;;;4.47;;
59846;SDS011;45728;48.788;2.302;2023-12-14T05:49:06;12.82;;;5.07;;
59846;SDS011;45728;48.788;2.302;2023-12-14T05:51:32;15.10;;;5.00;;
59846;SDS011;45728;48.788;2.302;2023-12-14T05:53:59;15.68;;;4.90;;
59846;SDS011;45728;48.788;2.302;2023-12-14T05:56:25;11.65;;;4.53;;
59846;SDS011;45728;48.788;2.302;2023-12-14T05:58:51;13.18;;;4.72;;
59846;SDS011;45728;48.788;2.302;2023-12-14T06:01:18;12.60;;;4.72;;
59846;SDS011;45728;48.788;2.302;2023-12-14T06:03:46;16.73;;;5.15;;
59846;SDS011;45728;48.788;2.302;2023-12-14T06:06:12;12.83;;;4.90;;
59846;SDS011;45728;48.788;2.302;2023-12-14T06:08:39;10.18;;;4.45;;
59846;SDS011;45728;48.788;2.302;2023-12-14T06:11:06;12.45;;;4.93;;
59846;SDS011;45728;48.788;2.302;2023-12-14T06:13:33;19.90;;;4.95;;
59846;SDS011;45728;48.788;2.302;2023-12-14T06:15:59;12.35;;;5.00;;
59846;SDS011;45728;48.788;2.302;2023-12-14T06:18:25;16.65;;;4.70;;
59846;SDS011;45728;48.788;2.302;2023-12-14T06:20:52;15.95;;;5.35;;
59846;SDS011;45728;48.788;2.302;2023-12-14T06:23:18;10.65;;;4.53;;
59846;SDS011;45728;48.788;2.302;2023-12-14T06:25:44;17.83;;;5.25;;
59846;SDS011;45728;48.788;2.302;2023-12-14T06:28:10;17.45;;;5.10;;
59846;SDS011;45728;48.788;2.302;2023-12-14T06:30:36;13.65;;;5.38;;
59846;SDS011;45728;48.788;2.302;2023-12-14T06:33:02;11.82;;;5.28;;
59846;SDS011;45728;48.788;2.302;2023-12-14T06:35:28;14.75;;;5.07;;
59846;SDS011;45728;48.788;2.302;2023-12-14T06:37:54;15.25;;;5.07;;
59846;SDS011;45728;48.788;2.302;2023-12-14T06:40:20;19.40;;;5.60;;
59846;SDS011;45728;48.788;2.302;2023-12-14T06:42:46;17.15;;;4.55;;
59846;SDS011;45728;48.788;2.302;2023-12-14T06:45:12;14.80;;;5.28;;
59846;SDS011;45728;48.788;2.302;2023-12-14T06:47:38;10.88;;;4.25;;
59846;SDS011;45728;48.788;2.302;2023-12-14T06:50:07;8.60;;;4.30;;
59846;SDS011;45728;48.788;2.302;2023-12-14T06:52:33;13.40;;;4.43;;
59846;SDS011;45728;48.788;2.302;2023-12-14T06:54:59;12.95;;;4.22;;
59846;SDS011;45728;48.788;2.302;2023-12-14T06:57:25;8.85;;;3.60;;
59846;SDS011;45728;48.788;2.302;2023-12-14T06:59:52;9.35;;;3.83;;
59846;SDS011;45728;48.788;2.302;2023-12-14T07:02:18;14.07;;;3.88;;
59846;SDS011;45728;48.788;2.302;2023-12-14T07:04:44;11.00;;;3.50;;
59846;SDS011;45728;48.788;2.302;2023-12-14T07:07:10;7.78;;;3.40;;
59846;SDS011;45728;48.788;2.302;2023-12-14T07:09:38;7.75;;;2.90;;
59846;SDS011;45728;48.788;2.302;2023-12-14T07:12:04;9.05;;;3.72;;
59846;SDS011;45728;48.788;2.302;2023-12-14T07:14:30;8.75;;;3.10;;
59846;SDS011;45728;48.788;2.302;2023-12-14T07:16:56;6.68;;;2.65;;
59846;SDS011;45728;48.788;2.302;2023-12-14T07:19:22;7.18;;;2.75;;
59846;SDS011;45728;48.788;2.302;2023-12-14T07:21:48;9.68;;;3.35;;
59846;SDS011;45728;48.788;2.302;2023-12-14T07:24:14;9.63;;;3.28;;
59846;SDS011;45728;48.788;2.302;2023-12-14T07:26:40;5.85;;;2.90;;
59846;SDS011;45728;48.788;2.302;2023-12-14T07:29:07;7.68;;;2.80;;
59846;SDS011;45728;48.788;2.302;2023-12-14T07:31:33;8.02;;;3.00;;
59846;SDS011;45728;48.788;2.302;2023-12-14T07:33:59;7.55;;;3.25;;
59846;SDS011;45728;48.788;2.302;2023-12-14T07:36:25;9.82;;;3.53;;
59846;SDS011;45728;48.788;2.302;2023-12-14T07:38:51;6.28;;;3.03;;
59846;SDS011;45728;48.788;2.302;2023-12-14T07:41:18;7.70;;;2.88;;
59846;SDS011;45728;48.788;2.302;2023-12-14T07:43:44;6.00;;;3.13;;
59846;SDS011;45728;48.788;2.302;2023-12-14T07:46:10;7.53;;;2.90;;
59846;SDS011;45728;48.788;2.302;2023-12-14T07:48:36;8.43;;;3.13;;
59846;SDS011;45728;48.788;2.302;2023-12-14T07:51:02;7.03;;;2.78;;
59846;SDS011;45728;48.788;2.302;2023-12-14T07:53:28;4.60;;;2.95;;
59846;SDS011;45728;48.788;2.302;2023-12-14T07:55:54;7.85;;;2.65;;
59846;SDS011;45728;48.788;2.302;2023-12-14T07:58:20;9.55;;;2.97;;
59846;SDS011;45728;48.788;2.302;2023-12-14T08:00:47;4.30;;;2.90;;
59846;SDS011;45728;48.788;2.302;2023-12-14T08:03:13;6.07;;;3.15;;
59846;SDS011;45728;48.788;2.302;2023-12-14T08:05:39;8.52;;;3.05;;
59846;SDS011;45728;48.788;2.302;2023-12-14T08:08:05;5.68;;;2.90;;
59846;SDS011;45728;48.788;2.302;2023-12-14T08:10:31;6.25;;;3.13;;
59846;SDS011;45728;48.788;2.302;2023-12-14T08:12:57;6.70;;;3.08;;
59846;SDS011;45728;48.788;2.302;2023-12-14T08:15:23;6.30;;;3.45;;
59846;SDS011;45728;48.788;2.302;2023-12-14T08:17:49;8.43;;;4.43;;
59846;SDS011;45728;48.788;2.302;2023-12-14T08:20:15;7.38;;;4.03;;
59846;SDS011;45728;48.788;2.302;2023-12-14T08:22:41;9.73;;;4.43;;
59846;SDS011;45728;48.788;2.302;2023-12-14T08:25:13;10.98;;;4.28;;
59846;SDS011;45728;48.788;2.302;2023-12-14T08:27:43;9.80;;;4.55;;
59846;SDS011;45728;48.788;2.302;2023-12-14T08:30:10;10.60;;;4.72;;
59846;SDS011;45728;48.788;2.302;2023-12-14T08:32:36;7.75;;;4.30;;
59846;SDS011;45728;48.788;2.302;2023-12-14T08:35:02;11.02;;;4.78;;
59846;SDS011;45728;48.788;2.302;2023-12-14T08:37:29;9.55;;;4.25;;
59846;SDS011;45728;48.788;2.302;2023-12-14T08:39:55;11.30;;;4.85;;
59846;SDS011;45728;48.788;2.302;2023-12-14T08:42:21;12.95;;;4.97;;
59846;SDS011;45728;48.788;2.302;2023-12-14T08:44:47;12.50;;;4.82;;
59846;SDS011;45728;48.788;2.302;2023-12-14T08:47:13;9.70;;;4.90;;
59846;SDS011;45728;48.788;2.302;2023-12-14T08:49:39;12.93;;;5.18;;
59846;SDS011;45728;48.788;2.302;2023-12-14T08:52:06;13.93;;;5.03;;
59846;SDS011;45728;48.788;2.302;2023-12-14T08:54:32;9.60;;;4.65;;
59846;SDS011;45728;48.788;2.302;2023-12-14T08:56:58;8.95;;;4.57;;
59846;SDS011;45728;48.788;2.302;2023-12-14T08:59:26;5.63;;;2.55;;
59846;SDS011;45728;48.788;2.302;2023-12-14T09:01:52;11.73;;;4.97;;
59846;SDS011;45728;48.788;2.302;2023-12-14T09:04:18;9.50;;;4.68;;
59846;SDS011;45728;48.788;2.302;2023-12-14T09:06:44;9.90;;;4.18;;
59846;SDS011;45728;48.788;2.302;2023-12-14T09:09:11;9.35;;;4.45;;
59846;SDS011;45728;48.788;2.302;2023-12-14T09:11:37;11.45;;;4.40;;
59846;SDS011;45728;48.788;2.302;2023-12-14T09:14:03;5.50;;;3.65;;
59846;SDS011;45728;48.788;2.302;2023-12-14T09:16:29;10.27;;;4.32;;
59846;SDS011;45728;48.788;2.302;2023-12-14T09:18:55;6.45;;;3.70;;
59846;SDS011;45728;48.788;2.302;2023-12-14T09:21:21;9.73;;;4.50;;
59846;SDS011;45728;48.788;2.302;2023-12-14T09:23:47;8.68;;;3.95;;
59846;SDS011;45728;48.788;2.302;2023-12-14T09:26:14;7.40;;;4.35;;
59846;SDS011;45728;48.788;2.302;2023-12-14T09:28:40;7.68;;;3.85;;
59846;SDS011;45728;48.788;2.302;2023-12-14T09:31:06;9.05;;;4.22;;
59846;SDS011;45728;48.788;2.302;2023-12-14T09:33:32;8.32;;;3.88;;
59846;SDS011;45728;48.788;2.302;2023-12-14T09:35:58;7.28;;;3.83;;
59846;SDS011;45728;48.788;2.302;2023-12-14T09:38:24;7.72;;;4.07;;
59846;SDS011;45728;48.788;2.302;2023-12-14T09:40:50;8.93;;;3.92;;
59846;SDS011;45728;48.788;2.302;2023-12-14T09:43:16;6.82;;;3.95;;
59846;SDS011;45728;48.788;2.302;2023-12-14T09:45:42;8.05;;;3.58;;
59846;SDS011;45728;48.788;2.302;2023-12-14T09:48:11;7.78;;;3.85;;
59846;SDS011;45728;48.788;2.302;2023-12-14T09:50:38;10.30;;;3.60;;
59846;SDS011;45728;48.788;2.302;2023-12-14T09:53:05;8.68;;;3.50;;
59846;SDS011;45728;48.788;2.302;2023-12-14T09:55:33;7.53;;;3.53;;
59846;SDS011;45728;48.788;2.302;2023-12-14T09:57:59;10.10;;;3.95;;
59846;SDS011;45728;48.788;2.302;2023-12-14T10:00:34;8.63;;;3.80;;
59846;SDS011;45728;48.788;2.302;2023-12-14T10:03:19;8.35;;;3.60;;
59846;SDS011;45728;48.788;2.302;2023-12-14T10:05:46;8.65;;;3.17;;
59846;SDS011;45728;48.788;2.302;2023-12-14T10:08:14;8.57;;;3.65;;
59846;SDS011;45728;48.788;2.302;2023-12-14T10:10:42;9.10;;;3.55;;
59846;SDS011;45728;48.788;2.302;2023-12-14T10:13:09;5.63;;;3.05;;
59846;SDS011;45728;48.788;2.302;2023-12-14T10:15:42;8.65;;;3.40;;
59846;SDS011;45728;48.788;2.302;2023-12-14T10:18:09;7.07;;;3.30;;
59846;SDS011;45728;48.788;2.302;2023-12-14T10:20:55;6.57;;;3.28;;
59846;SDS011;45728;48.788;2.302;2023-12-14T10:23:22;8.77;;;3.58;;
59846;SDS011;45728;48.788;2.302;2023-12-14T10:25:48;10.77;;;3.35;;
59846;SDS011;45728;48.788;2.302;2023-12-14T10:28:14;12.32;;;3.97;;
59846;SDS011;45728;48.788;2.302;2023-12-14T10:30:40;8.57;;;3.53;;
59846;SDS011;45728;48.788;2.302;2023-12-14T10:33:07;10.18;;;3.10;;
59846;SDS011;45728;48.788;2.302;2023-12-14T10:35:34;8.30;;;3.33;;
59846;SDS011;45728;48.788;2.302;2023-12-14T10:38:02;7.60;;;3.53;;
59846;SDS011;45728;48.788;2.302;2023-12-14T10:40:33;8.93;;;3.42;;
59846;SDS011;45728;48.788;2.302;2023-12-14T10:43:02;7.68;;;3.00;;
59846;SDS011;45728;48.788;2.302;2023-12-14T10:45:31;8.05;;;3.00;;
59846;SDS011;45728;48.788;2.302;2023-12-14T10:47:58;8.45;;;3.05;;
59846;SDS011;45728;48.788;2.302;2023-12-14T10:50:29;11.18;;;3.70;;
59846;SDS011;45728;48.788;2.302;2023-12-14T10:52:58;10.50;;;2.90;;
59846;SDS011;45728;48.788;2.302;2023-12-14T10:55:33;5.40;;;2.80;;
59846;SDS011;45728;48.788;2.302;2023-12-14T10:58:03;7.97;;;2.65;;
59846;SDS011;45728;48.788;2.302;2023-12-14T11:00:30;7.55;;;2.90;;
59846;SDS011;45728;48.788;2.302;2023-12-14T11:02:58;6.18;;;2.97;;
59846;SDS011;45728;48.788;2.302;2023-12-14T11:05:26;12.50;;;3.63;;
59846;SDS011;45728;48.788;2.302;2023-12-14T11:07:59;8.57;;;2.85;;
59846;SDS011;45728;48.788;2.302;2023-12-14T11:10:41;9.82;;;3.08;;
59846;SDS011;45728;48.788;2.302;2023-12-14T11:13:12;9.60;;;3.15;;
59846;SDS011;45728;48.788;2.302;2023-12-14T11:15:40;6.55;;;3.10;;
59846;SDS011;45728;48.788;2.302;2023-12-14T11:20:59;7.00;;;2.80;;
59846;SDS011;45728;48.788;2.302;2023-12-14T11:23:27;8.10;;;2.47;;
59846;SDS011;45728;48.788;2.302;2023-12-14T11:25:59;7.95;;;2.72;;
59846;SDS011;45728;48.788;2.302;2023-12-14T11:28:35;6.20;;;3.00;;
59846;SDS011;45728;48.788;2.302;2023-12-14T11:31:02;5.57;;;2.70;;
59846;SDS011;45728;48.788;2.302;2023-12-14T11:33:32;4.95;;;1.60;;
59846;SDS011;45728;48.788;2.302;2023-12-14T11:35:59;5.30;;;2.40;;
59846;SDS011;45728;48.788;2.302;2023-12-14T11:38:26;5.97;;;2.58;;
59846;SDS011;45728;48.788;2.302;2023-12-14T11:40:52;5.97;;;2.45;;
59846;SDS011;45728;48.788;2.302;2023-12-14T11:43:18;5.25;;;2.58;;
59846;SDS011;45728;48.788;2.302;2023-12-14T11:45:49;8.18;;;2.38;;
59846;SDS011;45728;48.788;2.302;2023-12-14T11:48:15;5.28;;;2.10;;
59846;SDS011;45728;48.788;2.302;2023-12-14T11:50:42;8.68;;;2.67;;
59846;SDS011;45728;48.788;2.302;2023-12-14T11:53:08;6.63;;;1.92;;
59846;SDS011;45728;48.788;2.302;2023-12-14T11:55:35;7.82;;;2.47;;
59846;SDS011;45728;48.788;2.302;2023-12-14T11:58:02;5.32;;;2.22;;
59846;SDS011;45728;48.788;2.302;2023-12-14T12:00:30;5.68;;;2.03;;
59846;SDS011;45728;48.788;2.302;2023-12-14T12:03:10;5.57;;;2.17;;
59846;SDS011;45728;48.788;2.302;2023-12-14T12:05:41;5.10;;;2.33;;
59846;SDS011;45728;48.788;2.302;2023-12-14T12:08:09;7.05;;;2.50;;
59846;SDS011;45728;48.788;2.302;2023-12-14T12:10:39;5.32;;;1.98;;
59846;SDS011;45728;48.788;2.302;2023-12-14T12:13:12;6.07;;;2.50;;
59846;SDS011;45728;48.788;2.302;2023-12-14T12:15:45;4.75;;;2.10;;
59846;SDS011;45728;48.788;2.302;2023-12-14T12:18:13;5.53;;;2.40;;
59846;SDS011;45728;48.788;2.302;2023-12-14T12:20:40;7.63;;;2.37;;
59846;SDS011;45728;48.788;2.302;2023-12-14T12:23:06;5.18;;;2.38;;
59846;SDS011;45728;48.788;2.302;2023-12-14T12:25:33;6.40;;;2.72;;
59846;SDS011;45728;48.788;2.302;2023-12-14T12:28:00;5.60;;;3.10;;
59846;SDS011;45728;48.788;2.302;2023-12-14T12:30:27;8.05;;;3.00;;
59846;SDS011;45728;48.788;2.302;2023-12-14T12:32:53;5.45;;;2.80;;
59846;SDS011;45728;48.788;2.302;2023-12-14T12:35:21;9.43;;;3.13;;
59846;SDS011;45728;48.788;2.302;2023-12-14T12:37:48;7.47;;;2.90;;
59846;SDS011;45728;48.788;2.302;2023-12-14T12:40:19;6.85;;;2.65;;
59846;SDS011;45728;48.788;2.302;2023-12-14T12:42:46;6.47;;;2.30;;
59846;SDS011;45728;48.788;2.302;2023-12-14T12:45:14;6.05;;;2.17;;
59846;SDS011;45728;48.788;2.302;2023-12-14T12:47:43;6.68;;;2.60;;
59846;SDS011;45728;48.788;2.302;2023-12-14T12:50:10;7.80;;;2.90;;
59846;SDS011;45728;48.788;2.302;2023-12-14T12:52:36;7.75;;;2.63;;
59846;SDS011;45728;48.788;2.302;2023-12-14T12:55:04;7.78;;;2.92;;
59846;SDS011;45728;48.788;2.302;2023-12-14T12:57:35;8.02;;;2.60;;
59846;SDS011;45728;48.788;2.302;2023-12-14T13:00:02;9.75;;;3.47;;
59846;SDS011;45728;48.788;2.302;2023-12-14T13:02:29;5.30;;;2.30;;
59846;SDS011;45728;48.788;2.302;2023-12-14T13:04:55;6.78;;;2.13;;
59846;SDS011;45728;48.788;2.302;2023-12-14T13:07:22;8.05;;;2.80;;
59846;SDS011;45728;48.788;2.302;2023-12-14T13:09:49;6.20;;;2.60;;
59846;SDS011;45728;48.788;2.302;2023-12-14T13:12:15;8.00;;;2.20;;
59846;SDS011;45728;48.788;2.302;2023-12-14T13:14:41;4.70;;;2.17;;
59846;SDS011;45728;48.788;2.302;2023-12-14T13:17:07;5.85;;;2.15;;
59846;SDS011;45728;48.788;2.302;2023-12-14T13:19:33;7.45;;;2.45;;
59846;SDS011;45728;48.788;2.302;2023-12-14T13:21:59;7.43;;;2.20;;
59846;SDS011;45728;48.788;2.302;2023-12-14T13:24:27;6.45;;;2.30;;
59846;SDS011;45728;48.788;2.302;2023-12-14T13:26:53;5.43;;;2.40;;
59846;SDS011;45728;48.788;2.302;2023-12-14T13:29:19;5.00;;;2.10;;
59846;SDS011;45728;48.788;2.302;2023-12-14T13:31:46;6.28;;;2.63;;
59846;SDS011;45728;48.788;2.302;2023-12-14T13:34:13;8.35;;;2.38;;
59846;SDS011;45728;48.788;2.302;2023-12-14T13:36:39;8.60;;;2.20;;
59846;SDS011;45728;48.788;2.302;2023-12-14T13:39:05;4.68;;;2.20;;
59846;SDS011;45728;48.788;2.302;2023-12-14T13:41:32;6.82;;;2.08;;
59846;SDS011;45728;48.788;2.302;2023-12-14T13:44:00;4.90;;;2.00;;
59846;SDS011;45728;48.788;2.302;2023-12-14T13:46:26;4.75;;;1.90;;
59846;SDS011;45728;48.788;2.302;2023-12-14T13:48:52;5.15;;;1.90;;
59846;SDS011;45728;48.788;2.302;2023-12-14T13:51:18;8.55;;;2.33;;
59846;SDS011;45728;48.788;2.302;2023-12-14T13:53:44;6.70;;;2.20;;
59846;SDS011;45728;48.788;2.302;2023-12-14T13:56:10;7.10;;;2.38;;
59846;SDS011;45728;48.788;2.302;2023-12-14T13:58:37;7.05;;;2.38;;
59846;SDS011;45728;48.788;2.302;2023-12-14T14:01:04;7.85;;;2.53;;
59846;SDS011;45728;48.788;2.302;2023-12-14T14:03:34;4.55;;;2.17;;
59846;SDS011;45728;48.788;2.302;2023-12-14T14:06:01;5.07;;;2.30;;
59846;SDS011;45728;48.788;2.302;2023-12-14T14:08:30;5.63;;;2.08;;
59846;SDS011;45728;48.788;2.302;2023-12-14T14:10:57;11.48;;;2.58;;
59846;SDS011;45728;48.788;2.302;2023-12-14T14:13:24;7.60;;;2.60;;
59846;SDS011;45728;48.788;2.302;2023-12-14T14:15:50;4.80;;;2.30;;
59846;SDS011;45728;48.788;2.302;2023-12-14T14:18:16;5.97;;;2.10;;
59846;SDS011;45728;48.788;2.302;2023-12-14T14:20:42;5.43;;;1.90;;
59846;SDS011;45728;48.788;2.302;2023-12-14T14:23:08;5.05;;;1.85;;
59846;SDS011;45728;48.788;2.302;2023-12-14T14:25:34;6.18;;;2.20;;
59846;SDS011;45728;48.788;2.302;2023-12-14T14:28:00;4.78;;;1.75;;
59846;SDS011;45728;48.788;2.302;2023-12-14T14:30:26;4.45;;;1.80;;
59846;SDS011;45728;48.788;2.302;2023-12-14T14:32:53;4.10;;;1.83;;
59846;SDS011;45728;48.788;2.302;2023-12-14T14:35:19;3.60;;;1.88;;
59846;SDS011;45728;48.788;2.302;2023-12-14T14:37:45;5.07;;;1.98;;
59846;SDS011;45728;48.788;2.302;2023-12-14T14:40:12;4.25;;;1.67;;
59846;SDS011;45728;48.788;2.302;2023-12-14T14:42:41;4.43;;;1.92;;
59846;SDS011;45728;48.788;2.302;2023-12-14T14:45:08;4.63;;;1.80;;